createdAt,value
2022-12-25T00:01:11.453Z,2.40
2022-12-25T00:03:38.347Z,2.40
2022-12-25T00:06:05.174Z,2.36
2022-12-25T00:08:31.792Z,2.34
2022-12-25T00:11:01.915Z,2.32
2022-12-25T00:13:28.474Z,2.28
2022-12-25T00:15:54.936Z,2.25
2022-12-25T00:18:21.516Z,2.22
2022-12-25T00:21:00.894Z,2.17
2022-12-25T00:23:27.339Z,2.06
2022-12-25T00:25:53.766Z,2.02
2022-12-25T00:28:20.248Z,1.98
2022-12-25T00:30:46.816Z,1.95
2022-12-25T00:33:13.247Z,1.94
2022-12-25T00:35:39.721Z,1.95
2022-12-25T00:38:06.180Z,1.94
2022-12-25T00:40:32.612Z,1.95
2022-12-25T00:42:59.206Z,1.96
2022-12-25T00:45:25.689Z,1.93
2022-12-25T00:47:52.159Z,1.90
2022-12-25T00:50:18.641Z,1.90
2022-12-25T00:52:45.062Z,1.91
2022-12-25T00:55:11.515Z,1.92
2022-12-25T00:57:37.967Z,1.96
2022-12-25T01:00:04.947Z,2.00
2022-12-25T01:02:31.504Z,2.04
2022-12-25T01:04:58.071Z,2.09
2022-12-25T01:07:25.180Z,2.12
2022-12-25T01:10:10.229Z,2.16
2022-12-25T01:12:37.528Z,2.17
2022-12-25T01:15:04.943Z,2.19
2022-12-25T01:17:31.518Z,2.22
2022-12-25T01:19:57.957Z,2.24
2022-12-25T01:22:24.415Z,2.25
2022-12-25T01:24:51.050Z,2.24
2022-12-25T01:27:17.734Z,2.23
2022-12-25T01:29:45.339Z,2.17
2022-12-25T01:32:12.043Z,2.11
2022-12-25T01:34:38.708Z,2.08
2022-12-25T01:37:05.117Z,2.05
2022-12-25T01:39:32.151Z,2.02
2022-12-25T01:41:58.568Z,2.01
2022-12-25T01:44:37.275Z,1.99
2022-12-25T01:47:04.237Z,1.97
2022-12-25T01:49:30.849Z,1.94
2022-12-25T01:51:58.165Z,1.93
2022-12-25T01:54:25.971Z,1.91
2022-12-25T01:56:52.636Z,1.92
2022-12-25T01:59:19.883Z,1.93
2022-12-25T02:01:46.741Z,1.90
2022-12-25T02:04:15.038Z,1.85
2022-12-25T02:06:41.648Z,1.83
2022-12-25T02:09:08.066Z,1.82
2022-12-25T02:11:53.330Z,1.85
2022-12-25T02:14:20.460Z,1.85
2022-12-25T02:16:57.580Z,1.81
2022-12-25T02:19:38.529Z,1.81
2022-12-25T02:22:24.036Z,1.81
2022-12-25T02:25:08.887Z,1.82
2022-12-25T02:27:44.400Z,1.86
2022-12-25T02:30:11.441Z,1.91
2022-12-25T02:32:43.414Z,1.95
2022-12-25T02:35:10.042Z,2.00
2022-12-25T02:37:48.862Z,2.02
2022-12-25T02:40:28.454Z,1.95
2022-12-25T02:43:17.860Z,1.92
2022-12-25T02:46:04.754Z,1.90
2022-12-25T02:48:54.096Z,1.91
2022-12-25T02:51:39.409Z,1.92
2022-12-25T02:54:26.723Z,1.92
2022-12-25T02:57:11.765Z,1.92
2022-12-25T02:59:57.116Z,1.91
2022-12-25T03:02:42.116Z,1.90
2022-12-25T03:05:28.252Z,1.92
2022-12-25T03:07:54.764Z,1.95
2022-12-25T03:10:40.108Z,1.96
2022-12-25T03:13:09.249Z,1.97
2022-12-25T03:15:54.350Z,1.98
2022-12-25T03:18:24.358Z,1.97
2022-12-25T03:21:09.990Z,1.92
2022-12-25T03:23:55.633Z,1.88
2022-12-25T03:26:40.703Z,1.86
2022-12-25T03:29:07.300Z,1.84
2022-12-25T03:31:44.808Z,1.78
2022-12-25T03:34:49.100Z,1.69
2022-12-25T03:37:46.752Z,1.63
2022-12-25T03:40:35.021Z,1.57
2022-12-25T03:43:40.491Z,1.54
2022-12-25T03:46:26.676Z,1.52
2022-12-25T03:49:13.316Z,1.48
2022-12-25T03:51:58.555Z,1.41
2022-12-25T03:54:44.189Z,1.33
2022-12-25T03:57:29.322Z,1.27
2022-12-25T04:00:14.379Z,1.25
2022-12-25T04:02:59.578Z,1.25
2022-12-25T04:05:45.020Z,1.26
2022-12-25T04:08:30.021Z,1.27
2022-12-25T04:11:15.117Z,1.26
2022-12-25T04:14:00.143Z,1.24
2022-12-25T04:16:45.318Z,1.23
2022-12-25T04:19:30.489Z,1.18
2022-12-25T04:22:15.604Z,1.18
2022-12-25T04:25:00.926Z,1.18
2022-12-25T04:27:46.044Z,1.17
2022-12-25T04:30:31.208Z,1.24
2022-12-25T04:33:16.716Z,1.23
2022-12-25T04:36:05.387Z,1.19
2022-12-25T04:38:31.850Z,1.16
2022-12-25T04:40:58.950Z,1.17
2022-12-25T04:43:25.640Z,1.18
2022-12-25T04:45:55.496Z,1.22
2022-12-25T04:48:22.095Z,1.27
2022-12-25T04:50:48.589Z,1.33
2022-12-25T04:53:15.476Z,1.41
2022-12-25T04:55:41.909Z,1.46
2022-12-25T04:58:08.396Z,1.50
2022-12-25T05:00:34.918Z,1.53
2022-12-25T05:03:01.526Z,1.54
2022-12-25T05:05:28.084Z,1.57
2022-12-25T05:07:54.518Z,1.60
2022-12-25T05:10:20.959Z,1.64
2022-12-25T05:12:47.376Z,1.69
2022-12-25T05:15:13.930Z,1.73
2022-12-25T05:17:40.366Z,1.77
2022-12-25T05:20:07.044Z,1.80
2022-12-25T05:22:33.707Z,1.85
2022-12-25T05:25:00.127Z,1.87
2022-12-25T05:27:26.565Z,1.90
2022-12-25T05:29:53.094Z,1.91
2022-12-25T05:32:19.525Z,1.93
2022-12-25T05:34:45.948Z,1.93
2022-12-25T05:37:12.576Z,1.91
2022-12-25T05:39:39.031Z,1.86
2022-12-25T05:42:05.488Z,1.85
2022-12-25T05:44:31.937Z,1.84
2022-12-25T05:46:58.472Z,1.83
2022-12-25T05:49:25.037Z,1.81
2022-12-25T05:51:51.504Z,1.81
2022-12-25T05:54:17.954Z,1.81
2022-12-25T05:56:44.374Z,1.83
2022-12-25T05:59:10.895Z,1.84
2022-12-25T06:01:37.426Z,1.87
2022-12-25T06:04:08.518Z,1.92
2022-12-25T06:06:38.804Z,1.93
2022-12-25T06:09:05.320Z,1.96
2022-12-25T06:11:31.793Z,2.00
2022-12-25T06:13:58.233Z,2.02
2022-12-25T06:16:24.670Z,2.04
2022-12-25T06:18:54.237Z,2.07
2022-12-25T06:21:20.929Z,2.09
2022-12-25T06:23:47.494Z,2.06
2022-12-25T06:26:15.009Z,2.01
2022-12-25T06:28:41.654Z,1.94
2022-12-25T06:31:09.057Z,1.90
2022-12-25T06:33:35.813Z,1.88
2022-12-25T06:36:09.128Z,1.93
2022-12-25T06:38:35.659Z,1.94
2022-12-25T06:41:10.455Z,1.92
2022-12-25T06:43:37.152Z,1.89
2022-12-25T06:46:10.810Z,1.84
2022-12-25T06:48:37.717Z,1.78
2022-12-25T06:51:04.497Z,1.74
2022-12-25T06:53:37.082Z,1.70
2022-12-25T06:56:06.649Z,1.68
2022-12-25T06:58:33.156Z,1.67
2022-12-25T07:00:59.690Z,1.66
2022-12-25T07:03:26.813Z,1.67
2022-12-25T07:05:53.572Z,1.65
2022-12-25T07:08:20.002Z,1.66
2022-12-25T07:10:46.449Z,1.68
2022-12-25T07:13:12.937Z,1.71
2022-12-25T07:15:39.508Z,1.73
2022-12-25T07:18:05.934Z,1.71
2022-12-25T07:20:32.428Z,1.71
2022-12-25T07:22:58.916Z,1.70
2022-12-25T07:25:25.410Z,1.70
2022-12-25T07:27:51.851Z,1.74
2022-12-25T07:30:18.342Z,1.78
2022-12-25T07:32:49.986Z,1.80
2022-12-25T07:35:16.817Z,1.14
2022-12-25T07:38:01.570Z,1.86
2022-12-25T07:40:28.183Z,1.93
2022-12-25T07:42:54.680Z,1.97
2022-12-25T07:45:21.233Z,2.03
2022-12-25T07:47:47.782Z,2.14
2022-12-25T07:50:14.274Z,2.23
2022-12-25T07:52:43.577Z,2.30
2022-12-25T07:55:10.638Z,2.40
2022-12-25T07:57:37.149Z,2.51
2022-12-25T08:00:04.422Z,2.58
2022-12-25T08:02:31.034Z,2.62
2022-12-25T08:04:57.716Z,2.70
2022-12-25T08:07:24.226Z,2.77
2022-12-25T08:09:51.703Z,2.81
2022-12-25T08:12:18.302Z,2.83
2022-12-25T08:14:44.751Z,2.90
2022-12-25T08:17:11.366Z,2.99
2022-12-25T08:19:37.983Z,3.09
2022-12-25T08:22:04.599Z,3.18
2022-12-25T08:24:31.044Z,3.24
2022-12-25T08:26:57.509Z,3.27
2022-12-25T08:29:24.005Z,3.34
2022-12-25T08:31:50.519Z,3.57
2022-12-25T08:34:16.969Z,3.94
2022-12-25T08:36:43.627Z,4.51
2022-12-25T08:39:10.161Z,5.08
2022-12-25T08:41:36.678Z,5.68
2022-12-25T08:44:03.682Z,6.28
2022-12-25T08:46:30.153Z,6.97
2022-12-25T08:48:56.989Z,7.74
2022-12-25T08:51:23.811Z,8.53
2022-12-25T08:53:50.748Z,9.37
2022-12-25T08:56:18.307Z,10.14
2022-12-25T08:58:45.018Z,10.87
2022-12-25T09:01:12.017Z,11.56
2022-12-25T09:03:38.745Z,12.33
2022-12-25T09:06:05.998Z,12.94
2022-12-25T09:08:32.518Z,13.49
2022-12-25T09:11:02.771Z,14.04
2022-12-25T09:13:29.223Z,14.54
2022-12-25T09:15:55.787Z,15.04
2022-12-25T09:18:22.358Z,14.77
2022-12-25T09:20:57.143Z,15.62
2022-12-25T09:23:23.587Z,15.68
2022-12-25T09:25:50.027Z,15.47
2022-12-25T09:28:16.562Z,14.91
2022-12-25T09:30:43.040Z,14.14
2022-12-25T09:33:09.755Z,13.33
2022-12-25T09:35:36.211Z,12.44
2022-12-25T09:38:02.787Z,11.63
2022-12-25T09:40:29.882Z,10.93
2022-12-25T09:42:56.341Z,10.32
2022-12-25T09:45:27.257Z,9.79
2022-12-25T09:47:55.497Z,9.35
2022-12-25T09:50:40.937Z,9.00
2022-12-25T09:53:21.370Z,8.68
2022-12-25T09:56:06.687Z,8.41
2022-12-25T09:58:33.258Z,8.10
2022-12-25T10:01:21.442Z,7.85
2022-12-25T10:04:19.977Z,7.62
2022-12-25T10:06:55.549Z,7.48
2022-12-25T10:09:35.039Z,7.34
2022-12-25T10:12:14.443Z,7.22
2022-12-25T10:14:43.137Z,7.17
2022-12-25T10:17:28.518Z,7.15
2022-12-25T10:20:04.230Z,7.09
2022-12-25T10:23:09.089Z,6.96
2022-12-25T10:25:35.836Z,6.77
2022-12-25T10:28:03.996Z,6.60
2022-12-25T10:30:31.676Z,6.49
2022-12-25T10:32:58.243Z,6.44
2022-12-25T10:35:25.869Z,6.47
2022-12-25T10:38:02.272Z,6.46
2022-12-25T10:40:29.105Z,6.47
2022-12-25T10:42:56.385Z,6.56
2022-12-25T10:45:23.000Z,6.63
2022-12-25T10:47:54.988Z,6.62
2022-12-25T10:50:26.079Z,6.57
2022-12-25T10:52:59.605Z,6.49
2022-12-25T10:55:29.070Z,6.46
2022-12-25T10:57:57.962Z,6.45
2022-12-25T11:00:25.838Z,6.45
2022-12-25T11:02:53.203Z,6.43
2022-12-25T11:05:28.389Z,6.41
2022-12-25T11:07:55.727Z,6.43
2022-12-25T11:10:24.158Z,6.50
2022-12-25T11:12:50.928Z,6.51
2022-12-25T11:15:34.893Z,6.54
2022-12-25T11:18:01.669Z,6.66
2022-12-25T11:20:28.299Z,6.80
2022-12-25T11:22:55.203Z,6.85
2022-12-25T11:25:26.047Z,6.86
2022-12-25T11:27:59.147Z,6.85
2022-12-25T11:30:26.014Z,6.78
2022-12-25T11:32:56.444Z,6.74
2022-12-25T11:35:46.879Z,6.72
2022-12-25T11:38:13.319Z,6.71
2022-12-25T11:40:49.567Z,6.71
2022-12-25T11:43:27.593Z,6.76
2022-12-25T11:45:55.130Z,6.83
2022-12-25T11:48:23.566Z,6.92
2022-12-25T11:50:51.465Z,7.02
2022-12-25T11:53:20.607Z,7.06
2022-12-25T11:55:56.820Z,7.08
2022-12-25T11:58:42.111Z,7.10
2022-12-25T12:01:09.379Z,7.15
2022-12-25T12:03:39.956Z,7.24
2022-12-25T12:06:12.820Z,7.29
2022-12-25T12:08:39.272Z,7.39
2022-12-25T12:11:16.268Z,7.46
2022-12-25T12:13:43.992Z,7.53
2022-12-25T12:16:10.555Z,7.60
2022-12-25T12:18:37.344Z,7.61
2022-12-25T12:21:07.551Z,7.63
2022-12-25T12:23:47.193Z,7.66
2022-12-25T12:26:18.325Z,7.69
2022-12-25T12:28:45.854Z,7.77
2022-12-25T12:31:12.461Z,7.86
2022-12-25T12:33:40.679Z,7.95
2022-12-25T12:36:07.236Z,7.96
2022-12-25T12:38:33.749Z,7.98
2022-12-25T12:41:07.345Z,7.98
2022-12-25T12:43:36.860Z,7.96
2022-12-25T12:46:24.508Z,7.96
2022-12-25T12:49:35.293Z,7.98
2022-12-25T12:52:10.505Z,7.98
2022-12-25T12:54:50.023Z,8.02
2022-12-25T12:57:24.340Z,8.07
2022-12-25T12:59:51.064Z,8.11
2022-12-25T13:02:21.070Z,8.06
2022-12-25T13:05:03.667Z,8.02
2022-12-25T13:07:33.552Z,7.99
2022-12-25T13:10:19.067Z,7.96
2022-12-25T13:12:47.292Z,7.98
2022-12-25T13:15:13.981Z,7.98
2022-12-25T13:17:48.845Z,8.01
2022-12-25T13:20:24.232Z,8.08
2022-12-25T13:22:52.905Z,8.07
2022-12-25T13:25:23.205Z,8.11
2022-12-25T13:27:56.402Z,8.13
2022-12-25T13:30:23.014Z,8.13
2022-12-25T13:32:49.682Z,8.14
2022-12-25T13:35:16.688Z,8.15
2022-12-25T13:37:49.275Z,8.11
2022-12-25T13:40:25.530Z,8.11
2022-12-25T13:42:52.688Z,8.11
2022-12-25T13:45:23.518Z,8.09
2022-12-25T13:47:55.262Z,8.04
2022-12-25T13:50:26.635Z,8.01
2022-12-25T13:52:53.475Z,8.01
2022-12-25T13:55:21.015Z,7.98
2022-12-25T13:57:54.423Z,7.99
2022-12-25T14:00:25.889Z,8.01
2022-12-25T14:02:52.545Z,7.98
2022-12-25T14:05:45.504Z,7.90
2022-12-25T14:08:13.280Z,7.81
2022-12-25T14:10:39.982Z,7.70
2022-12-25T14:13:07.678Z,7.65
2022-12-25T14:15:34.155Z,7.60
2022-12-25T14:18:00.628Z,7.49
2022-12-25T14:20:31.001Z,7.39
2022-12-25T14:22:57.993Z,7.28
2022-12-25T14:25:27.065Z,7.15
2022-12-25T14:27:53.783Z,7.00
2022-12-25T14:30:20.237Z,6.85
2022-12-25T14:32:47.850Z,6.73
2022-12-25T14:35:19.736Z,6.59
2022-12-25T14:37:50.442Z,6.48
2022-12-25T14:40:23.983Z,6.40
2022-12-25T14:43:00.632Z,6.29
2022-12-25T14:45:28.337Z,6.17
2022-12-25T14:47:55.386Z,6.02
2022-12-25T14:50:25.785Z,5.89
2022-12-25T14:52:52.427Z,5.81
2022-12-25T14:55:20.274Z,5.75
2022-12-25T14:57:47.762Z,5.67
2022-12-25T15:00:21.661Z,5.57
2022-12-25T15:02:48.454Z,5.48
2022-12-25T15:05:27.391Z,5.39
2022-12-25T15:08:03.251Z,5.30
2022-12-25T15:10:58.886Z,5.26
2022-12-25T15:13:19.183Z,5.21
2022-12-25T15:15:58.917Z,5.16
2022-12-25T15:18:26.317Z,5.09
2022-12-25T15:20:52.779Z,5.05
2022-12-25T15:23:20.480Z,5.05
2022-12-25T15:25:51.130Z,5.01
2022-12-25T15:28:17.616Z,4.94
2022-12-25T15:30:44.315Z,4.89
2022-12-25T15:33:13.014Z,4.84
2022-12-25T15:35:39.537Z,4.77
2022-12-25T15:38:05.981Z,4.69
2022-12-25T15:40:32.550Z,4.69
2022-12-25T15:42:59.851Z,4.64
2022-12-25T15:45:27.234Z,4.61
2022-12-25T15:47:53.725Z,4.53
2022-12-25T15:50:20.387Z,4.44
2022-12-25T15:52:47.117Z,4.36
2022-12-25T15:55:13.713Z,4.35
2022-12-25T15:57:40.749Z,4.25
2022-12-25T16:00:07.752Z,4.21
2022-12-25T16:02:34.309Z,4.18
2022-12-25T16:05:05.390Z,4.17
2022-12-25T16:07:36.616Z,4.15
2022-12-25T16:10:03.582Z,4.11
2022-12-25T16:12:30.049Z,4.19
2022-12-25T16:14:56.781Z,4.27
2022-12-25T16:17:23.197Z,4.20
2022-12-25T16:19:49.795Z,4.14
2022-12-25T16:22:23.772Z,4.05
2022-12-25T16:24:50.205Z,4.01
2022-12-25T16:27:16.700Z,3.94
2022-12-25T16:29:43.291Z,3.97
2022-12-25T16:32:10.734Z,3.93
2022-12-25T16:34:37.178Z,3.96
2022-12-25T16:37:03.801Z,3.99
2022-12-25T16:39:30.240Z,4.07
2022-12-25T16:41:56.772Z,4.17
2022-12-25T16:44:23.248Z,4.24
2022-12-25T16:46:49.718Z,4.40
2022-12-25T16:49:16.234Z,4.49
2022-12-25T16:51:42.741Z,4.62
2022-12-25T16:54:09.173Z,4.69
2022-12-25T16:56:36.717Z,4.73
2022-12-25T16:59:03.334Z,4.83
2022-12-25T17:01:30.092Z,4.91
2022-12-25T17:03:58.512Z,5.03
2022-12-25T17:06:25.634Z,5.13
2022-12-25T17:08:52.676Z,5.25
2022-12-25T17:11:27.301Z,5.37
2022-12-25T17:13:54.227Z,5.48
2022-12-25T17:16:22.964Z,5.57
2022-12-25T17:18:52.831Z,5.65
2022-12-25T17:21:19.339Z,5.74
2022-12-25T17:23:45.931Z,5.82
2022-12-25T17:26:12.380Z,5.89
2022-12-25T17:28:38.929Z,5.98
2022-12-25T17:31:06.076Z,6.12
2022-12-25T17:33:33.823Z,6.22
2022-12-25T17:36:04.225Z,6.32
2022-12-25T17:38:31.150Z,6.39
2022-12-25T17:40:58.072Z,6.39
2022-12-25T17:43:24.653Z,6.39
2022-12-25T17:45:51.214Z,6.30
2022-12-25T17:48:17.724Z,6.34
2022-12-25T17:50:44.506Z,6.32
2022-12-25T17:53:11.327Z,6.30
2022-12-25T17:55:38.914Z,6.31
2022-12-25T17:58:05.443Z,6.28
2022-12-25T18:00:31.882Z,6.36
2022-12-25T18:02:58.781Z,6.33
2022-12-25T18:05:25.345Z,6.35
2022-12-25T18:07:51.958Z,6.39
2022-12-25T18:10:18.390Z,6.42
2022-12-25T18:12:44.899Z,6.47
2022-12-25T18:15:11.673Z,6.50
2022-12-25T18:17:38.356Z,6.59
2022-12-25T18:20:05.700Z,6.62
2022-12-25T18:22:33.475Z,6.77
2022-12-25T18:24:59.923Z,6.79
2022-12-25T18:27:26.868Z,6.82
2022-12-25T18:29:53.512Z,6.90
2022-12-25T18:32:23.390Z,6.98
2022-12-25T18:34:54.589Z,7.09
2022-12-25T18:37:21.110Z,7.11
2022-12-25T18:39:47.823Z,7.14
2022-12-25T18:42:32.994Z,7.20
2022-12-25T18:44:59.574Z,7.28
2022-12-25T18:47:26.068Z,5.99
2022-12-25T18:49:53.418Z,7.35
2022-12-25T18:52:49.021Z,7.36
2022-12-25T18:55:06.632Z,7.49
2022-12-25T18:57:33.239Z,7.58
2022-12-25T19:00:00.314Z,7.70
2022-12-25T19:02:27.132Z,7.78
2022-12-25T19:04:54.180Z,7.85
2022-12-25T19:07:22.687Z,7.94
2022-12-25T19:09:49.661Z,7.90
2022-12-25T19:12:17.794Z,7.90
2022-12-25T19:14:47.641Z,7.86
2022-12-25T19:17:15.033Z,7.84
2022-12-25T19:19:41.816Z,7.84
2022-12-25T19:22:08.363Z,7.79
2022-12-25T19:24:34.999Z,7.75
2022-12-25T19:27:01.437Z,7.77
2022-12-25T19:29:27.907Z,7.80
2022-12-25T19:31:54.493Z,7.82
2022-12-25T19:34:21.365Z,7.86
2022-12-25T19:36:47.835Z,7.85
2022-12-25T19:39:14.507Z,7.87
2022-12-25T19:41:41.148Z,7.86
2022-12-25T19:44:07.694Z,7.84
2022-12-25T19:46:35.005Z,7.78
2022-12-25T19:49:04.597Z,7.80
2022-12-25T19:51:33.064Z,7.80
2022-12-25T19:53:59.634Z,7.80
2022-12-25T19:56:26.461Z,7.77
2022-12-25T19:58:53.037Z,7.74
2022-12-25T20:01:20.458Z,7.71
2022-12-25T20:03:47.258Z,7.71
2022-12-25T20:06:22.008Z,7.75
2022-12-25T20:08:49.378Z,7.71
2022-12-25T20:11:16.295Z,7.66
2022-12-25T20:13:42.880Z,7.61
2022-12-25T20:16:10.245Z,7.58
2022-12-25T20:18:37.357Z,7.53
2022-12-25T20:21:05.575Z,7.53
2022-12-25T20:23:32.025Z,7.53
2022-12-25T20:26:00.947Z,7.56
2022-12-25T20:28:28.108Z,7.54
2022-12-25T20:30:55.146Z,7.56
2022-12-25T20:33:21.709Z,7.54
2022-12-25T20:35:48.305Z,7.57
2022-12-25T20:38:15.060Z,7.57
2022-12-25T20:41:16.327Z,7.62
2022-12-25T20:43:28.353Z,7.62
2022-12-25T20:45:56.939Z,7.67
2022-12-25T20:48:23.574Z,7.69
2022-12-25T20:50:50.209Z,7.71
2022-12-25T20:53:16.876Z,7.77
2022-12-25T20:55:46.784Z,7.75
2022-12-25T20:58:16.764Z,7.82
2022-12-25T21:00:43.633Z,7.80
2022-12-25T21:03:10.520Z,7.73
2022-12-25T21:05:49.719Z,7.75
2022-12-25T21:08:17.170Z,7.78
2022-12-25T21:10:44.182Z,7.73
2022-12-25T21:13:10.743Z,7.75
2022-12-25T21:15:37.237Z,7.73
2022-12-25T21:18:04.040Z,7.73
2022-12-25T21:20:30.485Z,7.74
2022-12-25T21:22:57.090Z,7.72
2022-12-25T21:25:23.602Z,7.79
2022-12-25T21:27:50.227Z,7.79
2022-12-25T21:30:16.824Z,7.77
2022-12-25T21:33:02.124Z,7.10
2022-12-25T21:35:28.608Z,7.79
2022-12-25T21:37:55.076Z,7.85
2022-12-25T21:40:21.545Z,7.90
2022-12-25T21:42:48.219Z,7.93
2022-12-25T21:45:14.663Z,7.96
2022-12-25T21:48:01.661Z,7.92
2022-12-25T21:50:46.200Z,7.93
2022-12-25T21:53:16.122Z,7.85
2022-12-25T21:55:42.743Z,7.84
2022-12-25T21:58:09.178Z,7.83
2022-12-25T22:00:35.907Z,7.83
2022-12-25T22:03:02.526Z,7.87
2022-12-25T22:05:47.724Z,7.87
2022-12-25T22:08:14.202Z,7.87
2022-12-25T22:10:40.840Z,7.84
2022-12-25T22:13:27.182Z,7.82
2022-12-25T22:16:12.494Z,7.87
2022-12-25T22:18:57.420Z,7.93
2022-12-25T22:21:24.058Z,7.95
2022-12-25T22:23:50.574Z,7.94
2022-12-25T22:26:20.802Z,7.95
2022-12-25T22:28:47.664Z,7.95
2022-12-25T22:31:14.355Z,7.99
2022-12-25T22:33:40.929Z,8.00
2022-12-25T22:36:07.862Z,8.04
2022-12-25T22:38:34.805Z,8.03
2022-12-25T22:41:05.206Z,8.06
2022-12-25T22:44:06.241Z,8.07
2022-12-25T22:46:18.203Z,8.08
2022-12-25T22:48:44.669Z,8.10
2022-12-25T22:51:11.101Z,8.11
2022-12-25T22:53:37.594Z,8.14
2022-12-25T22:56:04.090Z,8.12
2022-12-25T22:58:30.589Z,8.12
2022-12-25T23:00:57.095Z,8.07
2022-12-25T23:03:23.707Z,8.02
2022-12-25T23:05:54.010Z,7.98
2022-12-25T23:08:20.793Z,8.01
2022-12-25T23:10:47.254Z,8.01
2022-12-25T23:13:32.444Z,8.00
2022-12-25T23:15:58.948Z,8.05
2022-12-25T23:18:43.732Z,8.03
2022-12-25T23:21:31.968Z,8.02
2022-12-25T23:24:17.085Z,7.99
2022-12-25T23:26:44.075Z,8.04
2022-12-25T23:29:29.013Z,8.06
2022-12-25T23:31:55.471Z,8.07
2022-12-25T23:34:21.923Z,8.13
2022-12-25T23:36:48.468Z,8.19
2022-12-25T23:39:14.934Z,8.17
2022-12-25T23:41:41.805Z,8.11
2022-12-25T23:44:08.745Z,8.12
2022-12-25T23:46:35.231Z,8.13
2022-12-25T23:49:01.926Z,8.08
2022-12-25T23:51:28.556Z,8.08
2022-12-25T23:53:55.099Z,8.10
2022-12-25T23:56:21.709Z,8.11
2022-12-25T23:58:54.376Z,8.09
